Time;durP1;ratioP1;P1;durP2;ratioP2;P2;SDS_P1;SDS_P2;PMS_P1;PMS_P2;Temp;Humidity;BMP_temperature;BMP_pressure;BME280_temperature;BME280_humidity;BME280_pressure;Samples;Min_cycle;Max_cycle;Signal;HPM_P1;HPM_P2
2023/03/02 00:00:09;;;;;;;11.17;6.83;;;;;;;17.15;46.57;100445.25;5111029;28;20181;-61
2023/03/02 00:02:38;;;;;;;11.43;6.77;;;;;;;17.16;46.82;100444.06;5110265;28;20630;-61
2023/03/02 00:05:05;;;;;;;14.20;7.10;;;;;;;17.15;46.95;100430.19;5105468;28;20811;-61
2023/03/02 00:07:32;;;;;;;9.80;6.80;;;;;;;17.12;47.24;100426.03;5106347;27;20455;-61
2023/03/02 00:09:57;;;;;;;9.00;6.23;;;;;;;17.09;47.43;100425.94;5091402;28;20757;-61
2023/03/02 00:12:23;;;;;;;14.13;7.40;;;;;;;17.09;47.73;100432.47;5088515;28;20411;-61
2023/03/02 00:14:49;;;;;;;10.47;6.13;;;;;;;17.10;47.70;100428.41;5105764;28;20177;-61
2023/03/02 00:17:14;;;;;;;11.10;6.17;;;;;;;17.02;47.64;100426.59;5110451;28;21035;-60
2023/03/02 00:19:40;;;;;;;13.20;6.03;;;;;;;17.11;47.69;100421.50;5104705;28;20183;-61
2023/03/02 00:22:06;;;;;;;11.90;6.27;;;;;;;17.08;47.81;100425.13;5101152;28;20799;-62
2023/03/02 00:24:31;;;;;;;8.17;5.57;;;;;;;17.05;47.80;100425.03;5111293;28;20419;-61
2023/03/02 00:26:57;;;;;;;9.23;5.97;;;;;;;17.00;47.97;100416.75;5110555;28;20181;-61
2023/03/02 00:29:22;;;;;;;8.40;6.13;;;;;;;17.01;48.20;100419.22;5113876;27;20818;-61
2023/03/02 00:31:48;;;;;;;10.37;5.50;;;;;;;17.07;47.90;100417.75;5110510;28;20230;-61
2023/03/02 00:34:13;;;;;;;10.70;5.97;;;;;;;17.07;48.06;100420.63;5111301;28;20158;-61
2023/03/02 00:36:38;;;;;;;9.17;5.57;;;;;;;17.01;48.25;100416.34;5111513;28;20595;-61
2023/03/02 00:39:04;;;;;;;13.17;6.67;;;;;;;16.99;48.46;100426.47;5109853;28;20182;-61
2023/03/02 00:41:29;;;;;;;10.27;6.00;;;;;;;16.96;48.59;100424.38;5104039;28;20199;-61
2023/03/02 00:43:55;;;;;;;12.67;6.00;;;;;;;16.93;48.71;100417.38;5110946;28;20225;-61
2023/03/02 00:46:22;;;;;;;9.57;5.70;;;;;;;16.92;48.81;100418.59;5102816;28;20628;-61
2023/03/02 00:48:47;;;;;;;8.87;5.40;;;;;;;16.89;48.71;100419.31;5075633;28;20177;-61
2023/03/02 00:51:13;;;;;;;7.03;5.03;;;;;;;16.90;48.87;100418.09;5110251;28;20463;-61
2023/03/02 00:53:38;;;;;;;8.23;5.80;;;;;;;16.90;48.87;100418.09;5093117;28;20239;-61
2023/03/02 00:56:05;;;;;;;10.23;5.80;;;;;;;16.87;48.89;100409.47;5110876;28;20193;-61
2023/03/02 00:58:30;;;;;;;9.50;5.50;;;;;;;16.86;48.80;100407.81;5110682;28;20328;-61
2023/03/02 01:00:57;;;;;;;8.30;5.17;;;;;;;16.88;48.92;100405.41;5113225;27;20977;-61
2023/03/02 01:03:22;;;;;;;8.27;5.40;;;;;;;16.97;48.85;100404.06;5110822;28;20620;-61
2023/03/02 01:05:47;;;;;;;8.40;5.37;;;;;;;16.96;48.83;100398.72;5109788;28;20432;-61
2023/03/02 01:08:13;;;;;;;8.07;5.60;;;;;;;16.96;48.82;100396.66;5110554;28;20221;-61
2023/03/02 01:10:39;;;;;;;7.83;4.83;;;;;;;17.07;48.62;100400.66;5086694;28;20657;-61
2023/03/02 01:13:04;;;;;;;8.00;5.17;;;;;;;17.11;48.62;100392.19;5108264;28;20165;-61
2023/03/02 01:15:31;;;;;;;8.33;5.27;;;;;;;17.07;48.68;100389.25;5110088;28;20215;-62
2023/03/02 01:17:58;;;;;;;7.77;4.70;;;;;;;17.06;48.96;100392.44;5111752;27;20178;-61
2023/03/02 01:20:23;;;;;;;9.20;5.30;;;;;;;17.03;49.02;100379.75;5111023;28;20408;-61
2023/03/02 01:22:49;;;;;;;9.73;5.60;;;;;;;17.03;48.91;100378.91;5109602;28;20435;-61
2023/03/02 01:25:14;;;;;;;7.50;4.50;;;;;;;17.03;48.72;100385.47;5110211;28;20197;-61
2023/03/02 01:27:39;;;;;;;9.23;4.67;;;;;;;17.02;48.96;100377.28;5091760;28;20173;-58
2023/03/02 01:30:06;;;;;;;11.47;5.53;;;;;;;16.98;48.91;100379.19;5109131;28;20223;-59
2023/03/02 01:32:31;;;;;;;8.30;4.87;;;;;;;16.98;48.94;100377.19;5109516;28;20194;-60
2023/03/02 01:34:56;;;;;;;7.23;4.67;;;;;;;16.95;48.98;100377.91;5110436;28;20411;-59
2023/03/02 01:37:22;;;;;;;6.17;4.33;;;;;;;16.90;49.17;100378.19;5108895;28;20189;-60
2023/03/02 01:39:50;;;;;;;7.50;4.90;;;;;;;16.87;49.33;100370.38;5109945;28;20188;-60
2023/03/02 01:42:16;;;;;;;9.43;5.43;;;;;;;16.94;49.55;100376.25;5109000;28;20196;-59
2023/03/02 01:44:46;;;;;;;8.53;5.30;;;;;;;16.95;49.45;100374.25;5110115;28;20427;-59
2023/03/02 01:47:31;;;;;;;7.37;4.70;;;;;;;16.93;49.20;100365.22;5110217;28;20261;-60
2023/03/02 01:50:03;;;;;;;8.77;5.73;;;;;;;16.88;49.44;100363.47;5108655;28;20427;-60
2023/03/02 01:52:30;;;;;;;8.77;5.10;;;;;;;16.91;49.43;100359.88;5102822;28;20467;-60
2023/03/02 01:54:57;;;;;;;6.33;4.53;;;;;;;16.85;49.56;100354.84;5106618;28;20426;-60
2023/03/02 01:57:30;;;;;;;7.57;5.00;;;;;;;16.87;49.47;100350.44;5108966;28;20474;-60
2023/03/02 02:00:02;;;;;;;6.53;4.70;;;;;;;16.86;49.69;100350.78;5102948;28;20415;-60
2023/03/02 02:02:28;;;;;;;7.33;4.97;;;;;;;16.84;49.51;100348.31;5067654;28;20435;-59
2023/03/02 02:04:53;;;;;;;7.67;4.10;;;;;;;16.81;49.48;100346.19;5091616;28;20772;-60
2023/03/02 02:07:19;;;;;;;6.10;4.00;;;;;;;16.81;49.69;100349.03;5099953;28;20214;-59
2023/03/02 02:09:49;;;;;;;7.90;4.63;;;;;;;16.79;49.58;100347.75;5084299;28;20593;-59
2023/03/02 02:12:15;;;;;;;8.50;5.13;;;;;;;16.84;49.54;100348.31;5071513;28;20178;-59
2023/03/02 02:14:41;;;;;;;17.13;5.47;;;;;;;16.90;49.48;100343.97;5088781;28;20424;-59
2023/03/02 02:17:06;;;;;;;7.63;5.27;;;;;;;16.88;49.47;100336.97;5080028;28;20451;-60
2023/03/02 02:19:44;;;;;;;9.20;5.20;;;;;;;16.89;49.29;100335.78;5102635;28;20189;-60
2023/03/02 02:22:09;;;;;;;7.63;4.97;;;;;;;16.96;49.44;100331.09;5069293;28;20170;-59
2023/03/02 02:24:45;;;;;;;7.20;5.03;;;;;;;17.00;49.17;100334.84;5043773;28;21006;-60
2023/03/02 02:27:10;;;;;;;7.80;4.70;;;;;;;16.96;49.13;100330.28;5071967;28;20149;-60
2023/03/02 02:29:57;;;;;;;7.50;4.03;;;;;;;16.92;49.30;100329.34;5073960;28;20875;-60
2023/03/02 02:32:31;;;;;;;8.23;5.37;;;;;;;16.95;49.17;100332.28;5073214;28;20190;-59
2023/03/02 02:35:20;;;;;;;7.67;4.67;;;;;;;17.01;49.18;100327.94;5072680;28;20421;-59
2023/03/02 02:37:56;;;;;;;7.43;4.30;;;;;;;17.02;49.20;100325.94;5062768;28;20434;-59
2023/03/02 02:40:44;;;;;;;8.13;4.93;;;;;;;16.98;49.33;100327.88;5092468;28;20498;-60
2023/03/02 02:43:13;;;;;;;6.60;4.63;;;;;;;16.90;49.54;100321.16;5075097;28;20443;-60
2023/03/02 02:45:39;;;;;;;6.50;4.50;;;;;;;16.90;49.50;100329.72;5074788;28;20427;-60
2023/03/02 02:48:04;;;;;;;7.80;4.30;;;;;;;16.92;49.51;100324.50;5094081;28;20436;-60
2023/03/02 02:50:31;;;;;;;6.43;4.70;;;;;;;16.94;49.38;100332.66;5092881;28;20212;-60
2023/03/02 02:53:04;;;;;;;6.63;4.90;;;;;;;16.92;49.40;100330.19;5092146;28;20587;-60
2023/03/02 02:55:30;;;;;;;8.17;4.50;;;;;;;16.90;49.43;100332.56;5075154;28;20404;-60
2023/03/02 02:57:56;;;;;;;6.80;4.50;;;;;;;16.91;49.54;100330.56;5093254;28;20455;-61
2023/03/02 03:00:22;;;;;;;8.17;4.50;;;;;;;16.83;49.50;100329.53;5048966;28;20183;-60
2023/03/02 03:03:00;;;;;;;7.07;4.33;;;;;;;16.81;49.78;100329.06;5088444;28;20438;-60
2023/03/02 03:05:25;;;;;;;6.17;3.50;;;;;;;16.79;49.76;100334.31;5092905;28;20186;-60
2023/03/02 03:07:52;;;;;;;6.43;4.93;;;;;;;16.82;49.51;100335.63;5107535;28;21004;-60
2023/03/02 03:10:17;;;;;;;8.03;4.43;;;;;;;16.82;49.79;100336.44;5110929;28;20204;-60
2023/03/02 03:12:43;;;;;;;6.97;4.67;;;;;;;16.79;49.85;100331.47;5112823;28;20479;-60
2023/03/02 03:15:08;;;;;;;8.10;5.23;;;;;;;16.83;49.59;100335.25;5111873;28;20214;-59
2023/03/02 03:17:34;;;;;;;5.90;4.10;;;;;;;16.78;49.92;100326.97;5115353;27;20215;-60
2023/03/02 03:20:05;;;;;;;6.93;4.47;;;;;;;16.77;49.76;100328.19;5113840;28;20231;-60
2023/03/02 03:22:34;;;;;;;6.87;4.30;;;;;;;16.82;49.81;100330.75;5112748;28;20174;-60
2023/03/02 03:24:59;;;;;;;8.53;5.23;;;;;;;16.83;49.89;100325.84;5113488;28;20430;-60
2023/03/02 03:27:25;;;;;;;9.03;5.20;;;;;;;16.85;49.45;100332.84;5112641;28;20431;-60
2023/03/02 03:29:50;;;;;;;7.40;4.87;;;;;;;16.88;49.42;100334.13;5112157;28;20219;-60
2023/03/02 03:32:16;;;;;;;5.43;4.30;;;;;;;16.94;49.35;100330.63;5111554;28;20182;-61
2023/03/02 03:34:41;;;;;;;6.10;4.13;;;;;;;16.90;49.61;100335.41;5111995;28;20182;-60
2023/03/02 03:37:10;;;;;;;6.97;4.80;;;;;;;16.86;49.61;100327.97;5111109;28;20681;-60
2023/03/02 03:39:35;;;;;;;6.40;4.53;;;;;;;16.87;49.45;100330.47;5110086;28;20177;-61
2023/03/02 03:42:01;;;;;;;6.53;4.67;;;;;;;16.83;49.42;100328.72;5112478;28;21028;-60
2023/03/02 03:44:26;;;;;;;7.50;4.70;;;;;;;16.84;49.70;100322.63;5112063;28;20203;-60
2023/03/02 03:46:51;;;;;;;4.93;3.70;;;;;;;16.84;49.70;100325.50;5111258;28;20182;-60
2023/03/02 03:49:17;;;;;;;5.20;4.07;;;;;;;16.85;49.37;100324.28;5111146;28;20173;-60
2023/03/02 03:51:42;;;;;;;6.80;4.47;;;;;;;16.89;49.41;100325.22;5111983;28;20207;-61
2023/03/02 03:54:08;;;;;;;5.60;3.93;;;;;;;16.87;49.60;100326.78;5111055;28;20193;-60
2023/03/02 03:56:36;;;;;;;7.80;4.30;;;;;;;16.91;49.29;100328.50;5112315;28;20317;-61
2023/03/02 03:59:06;;;;;;;6.63;4.77;;;;;;;16.91;49.20;100322.00;5107892;28;20184;-60
2023/03/02 04:01:41;;;;;;;6.47;4.10;;;;;;;16.84;49.47;100325.50;5110715;28;20400;-60
2023/03/02 04:04:09;;;;;;;5.60;3.80;;;;;;;16.88;49.35;100320.72;5110072;28;21021;-60
2023/03/02 04:06:35;;;;;;;5.40;4.10;;;;;;;16.92;49.20;100324.50;5111790;28;20456;-60
2023/03/02 04:09:03;;;;;;;6.00;4.03;;;;;;;16.89;49.41;100336.63;5110277;28;20443;-60
2023/03/02 04:11:36;;;;;;;6.40;4.70;;;;;;;16.90;49.62;100334.59;5112026;28;20154;-60
2023/03/02 04:14:02;;;;;;;6.33;4.47;;;;;;;16.84;49.47;100331.19;5111887;28;20408;-60
2023/03/02 04:16:27;;;;;;;6.93;4.80;;;;;;;16.80;49.59;100335.16;5116970;27;20455;-60
2023/03/02 04:18:53;;;;;;;6.67;4.50;;;;;;;16.79;49.61;100342.88;5111880;27;20929;-60
2023/03/02 04:21:18;;;;;;;8.23;4.87;;;;;;;16.78;49.86;100340.38;5112831;27;20165;-61
2023/03/02 04:23:44;;;;;;;5.97;4.00;;;;;;;16.74;49.96;100337.44;5111046;28;20277;-60
2023/03/02 04:26:09;;;;;;;6.60;4.33;;;;;;;16.76;49.94;100342.78;5111310;28;20154;-60
2023/03/02 04:28:35;;;;;;;6.00;4.07;;;;;;;16.77;49.75;100335.88;5109932;28;20476;-60
2023/03/02 04:31:00;;;;;;;6.33;4.33;;;;;;;16.80;49.72;100343.72;5112007;27;20639;-60
2023/03/02 04:33:25;;;;;;;6.80;4.93;;;;;;;16.86;49.42;100345.91;5110339;28;20185;-60
2023/03/02 04:35:53;;;;;;;6.20;3.90;;;;;;;16.82;49.60;100342.16;5110902;28;20285;-60
2023/03/02 04:38:19;;;;;;;5.80;4.20;;;;;;;16.86;49.42;100342.25;5111187;28;20150;-59
2023/03/02 04:40:45;;;;;;;6.93;4.33;;;;;;;16.86;49.37;100345.91;5112785;27;20960;-60
2023/03/02 04:43:10;;;;;;;6.17;4.40;;;;;;;16.89;49.41;100342.31;5111342;28;20177;-60
2023/03/02 04:45:35;;;;;;;6.33;4.40;;;;;;;16.87;49.63;100344.72;5109569;28;20508;-60
2023/03/02 04:48:01;;;;;;;5.93;3.77;;;;;;;16.85;49.45;100347.09;5111283;28;20169;-60
2023/03/02 04:50:26;;;;;;;6.67;4.20;;;;;;;16.85;49.76;100347.09;5109266;28;20230;-60
2023/03/02 04:52:52;;;;;;;5.90;4.17;;;;;;;16.83;49.49;100360.06;5111418;28;20166;-60
2023/03/02 04:55:19;;;;;;;8.23;4.10;;;;;;;16.86;49.46;100353.66;5110255;28;20442;-60
2023/03/02 04:57:45;;;;;;;8.10;4.90;;;;;;;16.84;49.63;100356.00;5111093;28;20545;-60
2023/03/02 05:00:11;;;;;;;7.23;4.47;;;;;;;16.86;49.68;100353.66;5111091;28;20400;-60
2023/03/02 05:02:38;;;;;;;6.10;3.93;;;;;;;16.84;49.74;100348.31;5109979;28;20193;-61
2023/03/02 05:05:04;;;;;;;6.50;3.87;;;;;;;16.82;49.81;100350.72;5110536;28;20454;-60
2023/03/02 05:07:29;;;;;;;5.97;4.60;;;;;;;16.90;49.52;100340.31;5110578;27;20452;-60
2023/03/02 05:09:55;;;;;;;6.07;3.80;;;;;;;16.88;49.66;100339.84;5117522;27;20209;-61
2023/03/02 05:12:20;;;;;;;6.17;4.23;;;;;;;16.89;49.35;100335.78;5108289;28;20727;-61
2023/03/02 05:14:46;;;;;;;5.10;3.97;;;;;;;16.92;49.43;100335.88;5111035;28;21013;-60
2023/03/02 05:17:11;;;;;;;6.10;4.50;;;;;;;16.90;49.25;100337.47;5122009;27;20201;-61
2023/03/02 05:19:37;;;;;;;5.70;4.00;;;;;;;16.87;49.45;100343.88;5130604;27;20176;-60
2023/03/02 05:22:02;;;;;;;5.60;3.90;;;;;;;16.84;49.58;100333.22;5110304;28;20672;-61
2023/03/02 05:24:28;;;;;;;4.80;3.40;;;;;;;16.76;49.74;100340.75;5110799;27;20177;-60
2023/03/02 05:26:53;;;;;;;5.93;4.13;;;;;;;16.74;49.74;100340.31;5109873;28;20611;-60
2023/03/02 05:29:18;;;;;;;4.17;3.30;;;;;;;16.76;49.91;100342.78;5110500;28;20173;-60
2023/03/02 05:31:44;;;;;;;6.57;4.50;;;;;;;16.74;49.87;100336.63;5110149;28;20204;-60
2023/03/02 05:34:11;;;;;;;5.30;3.80;;;;;;;16.72;49.89;100339.84;5110495;28;20158;-60
2023/03/02 05:36:36;;;;;;;5.80;4.27;;;;;;;16.73;49.52;100344.34;5109355;28;20220;-60
2023/03/02 05:39:02;;;;;;;6.60;4.10;;;;;;;16.79;49.78;100342.88;5110321;28;20455;-60
2023/03/02 05:41:28;;;;;;;7.17;4.67;;;;;;;16.86;49.35;100348.75;5108623;28;20649;-60
2023/03/02 05:43:53;;;;;;;7.40;4.30;;;;;;;16.81;49.63;100346.19;5109876;28;20165;-60
2023/03/02 05:46:19;;;;;;;6.20;3.80;;;;;;;16.79;49.66;100345.72;5109476;28;20181;-60
2023/03/02 05:48:45;;;;;;;6.80;4.00;;;;;;;16.82;49.54;100352.72;5109333;28;20261;-60
2023/03/02 05:51:10;;;;;;;6.90;4.13;;;;;;;16.90;49.45;100352.53;5109413;28;20174;-60
2023/03/02 05:53:36;;;;;;;5.60;3.43;;;;;;;16.88;49.44;100352.06;5108147;28;20469;-61
2023/03/02 05:56:02;;;;;;;5.70;3.93;;;;;;;16.86;49.30;100360.16;5108201;28;20564;-60
2023/03/02 05:58:27;;;;;;;6.33;4.13;;;;;;;16.86;49.35;100353.66;5109358;28;20900;-61
2023/03/02 06:00:53;;;;;;;4.20;3.30;;;;;;;16.85;49.39;100355.66;5087755;28;20452;-61
2023/03/02 06:03:18;;;;;;;5.83;4.20;;;;;;;16.81;49.53;100356.78;5109756;28;20197;-60
2023/03/02 06:05:44;;;;;;;7.17;4.47;;;;;;;16.88;49.28;100365.50;5093829;28;20848;-61
2023/03/02 06:08:09;;;;;;;5.53;3.90;;;;;;;16.87;49.53;100361.84;5106650;28;20568;-61
2023/03/02 06:10:34;;;;;;;7.70;3.80;;;;;;;16.84;49.29;100356.84;5110359;28;20525;-60
2023/03/02 06:13:00;;;;;;;5.10;3.80;;;;;;;16.84;49.41;100362.56;5108690;28;20624;-61
2023/03/02 06:15:28;;;;;;;6.80;4.33;;;;;;;16.85;49.64;100363.41;5107503;28;20166;-60
2023/03/02 06:17:54;;;;;;;6.10;4.40;;;;;;;16.84;49.35;100367.41;5125534;28;20708;-61
2023/03/02 06:20:20;;;;;;;5.13;3.50;;;;;;;16.91;49.23;100365.59;5109773;27;20443;-61
2023/03/02 06:22:45;;;;;;;6.00;4.13;;;;;;;16.94;49.50;100367.72;5112460;28;20488;-61
2023/03/02 06:25:16;;;;;;;6.40;4.20;;;;;;;16.90;49.41;100371.69;5129749;28;20586;-61
2023/03/02 06:27:42;;;;;;;7.03;4.50;;;;;;;16.83;49.28;100371.47;5130465;27;20391;-60
2023/03/02 06:30:10;;;;;;;6.93;3.90;;;;;;;16.81;49.40;100380.38;5112233;27;20795;-61
2023/03/02 06:32:36;;;;;;;5.60;4.20;;;;;;;16.78;49.40;100378.28;5109708;28;20268;-61
2023/03/02 06:35:02;;;;;;;5.60;4.00;;;;;;;16.82;49.80;100378.38;5109021;28;20427;-61
2023/03/02 06:37:28;;;;;;;4.97;3.50;;;;;;;16.78;49.75;100386.00;5108814;28;20193;-61
2023/03/02 06:39:54;;;;;;;6.43;4.20;;;;;;;16.73;49.89;100387.13;5108487;28;20426;-61
2023/03/02 06:42:20;;;;;;;5.67;4.03;;;;;;;16.74;49.74;100397.31;5108359;28;20410;-61
2023/03/02 06:44:45;;;;;;;6.50;4.10;;;;;;;16.72;49.90;100399.72;5109761;28;20447;-60
2023/03/02 06:47:11;;;;;;;5.70;4.10;;;;;;;16.77;49.57;100392.91;5110229;28;20242;-61
2023/03/02 06:49:36;;;;;;;6.23;4.63;;;;;;;16.88;49.52;100386.28;5109342;28;20154;-60
2023/03/02 06:52:02;;;;;;;4.93;3.60;;;;;;;16.85;49.40;100395.56;5108380;28;20184;-61
2023/03/02 06:54:27;;;;;;;6.27;4.50;;;;;;;16.81;49.51;100408.91;5108895;28;20178;-60
2023/03/02 06:56:53;;;;;;;4.33;3.50;;;;;;;16.82;49.63;100392.63;5108692;28;20739;-61
2023/03/02 06:59:18;;;;;;;7.70;4.67;;;;;;;16.86;49.78;100404.97;5108619;28;20170;-61
2023/03/02 07:01:43;;;;;;;5.00;3.73;;;;;;;16.82;49.68;100407.72;5108928;28;20247;-61
2023/03/02 07:04:09;;;;;;;7.20;4.23;;;;;;;16.82;49.55;100409.75;5107186;28;20198;-60
2023/03/02 07:06:34;;;;;;;7.13;4.53;;;;;;;16.81;49.34;100414.59;5105929;28;20205;-61
2023/03/02 07:09:00;;;;;;;5.67;4.13;;;;;;;16.79;49.66;100417.00;5107176;28;20182;-61
2023/03/02 07:11:26;;;;;;;6.10;4.00;;;;;;;16.78;49.67;100421.06;5108089;28;20185;-61
2023/03/02 07:13:51;;;;;;;5.03;3.40;;;;;;;16.82;49.49;100421.97;5109515;28;20289;-61
2023/03/02 07:16:17;;;;;;;5.87;4.10;;;;;;;16.79;49.72;100421.88;5113244;27;20528;-61
2023/03/02 07:18:42;;;;;;;6.00;3.90;;;;;;;16.81;49.46;100431.72;5111941;28;20226;-61
2023/03/02 07:21:08;;;;;;;5.40;4.30;;;;;;;16.89;49.50;100427.88;5112112;28;20176;-61
2023/03/02 07:23:33;;;;;;;6.57;4.20;;;;;;;16.84;49.34;100425.28;5112359;28;20181;-61
2023/03/02 07:25:59;;;;;;;5.70;4.10;;;;;;;16.95;48.94;100432.09;5112259;28;20489;-60
2023/03/02 07:28:24;;;;;;;8.10;3.80;;;;;;;16.91;49.38;100430.34;5112155;28;20651;-61
2023/03/02 07:30:51;;;;;;;6.57;3.90;;;;;;;16.89;49.46;100439.28;5110602;28;20191;-61
2023/03/02 07:33:17;;;;;;;5.73;3.80;;;;;;;16.86;49.30;100434.28;5109825;27;20559;-61
2023/03/02 07:35:43;;;;;;;5.13;3.80;;;;;;;16.92;49.37;100440.56;5111967;28;20446;-61
2023/03/02 07:38:08;;;;;;;5.20;3.50;;;;;;;16.89;49.42;100439.28;5112251;28;20182;-61
2023/03/02 07:40:33;;;;;;;5.27;3.93;;;;;;;16.87;49.27;100433.13;5112071;28;20518;-61
2023/03/02 07:42:59;;;;;;;5.67;3.83;;;;;;;16.78;49.58;100432.47;5109977;28;20350;-60
2023/03/02 07:45:25;;;;;;;21.40;13.87;;;;;;;16.13;44.65;100438.69;5111671;28;20194;-60
2023/03/02 07:47:51;;;;;;;30.30;20.67;;;;;;;16.12;46.50;100442.72;5110798;28;20213;-61
2023/03/02 07:50:16;;;;;;;53.57;24.77;;;;;;;16.42;47.20;100446.91;5107295;28;21051;-60
2023/03/02 07:52:42;;;;;;;37.90;22.10;;;;;;;16.78;41.69;100438.16;5105200;28;20640;-62
2023/03/02 07:55:08;;;;;;;43.53;22.30;;;;;;;17.01;40.04;100438.38;5099746;28;20202;-61
2023/03/02 07:57:33;;;;;;;31.67;19.33;;;;;;;17.40;39.84;100438.19;5093141;28;20210;-61
2023/03/02 07:59:59;;;;;;;32.30;18.13;;;;;;;18.02;39.27;100432.31;5099092;28;20481;-61
2023/03/02 08:02:24;;;;;;;40.60;18.57;;;;;;;18.65;39.56;100439.41;5100943;28;20189;-61
2023/03/02 08:04:52;;;;;;;28.50;17.63;;;;;;;18.82;40.56;100438.09;5107635;28;20209;-61
2023/03/02 08:07:18;;;;;;;25.20;17.20;;;;;;;19.04;40.73;100443.84;5110368;28;20225;-59
2023/03/02 08:09:44;;;;;;;25.00;16.10;;;;;;;19.20;41.57;100453.13;5111537;28;20452;-60
2023/03/02 08:12:10;;;;;;;27.60;16.00;;;;;;;19.23;41.62;100448.72;5110605;28;20436;-60
2023/03/02 08:14:36;;;;;;;25.23;14.17;;;;;;;19.11;42.64;100458.28;5096062;28;20186;-60
2023/03/02 08:17:03;;;;;;;26.03;12.93;;;;;;;19.02;42.99;100459.75;5108884;28;20254;-60
2023/03/02 08:19:28;;;;;;;21.37;13.47;;;;;;;19.06;43.33;100458.59;5098746;28;20440;-60
2023/03/02 08:21:54;;;;;;;19.00;12.63;;;;;;;18.98;43.68;100453.13;5112969;27;20418;-60
2023/03/02 08:24:19;;;;;;;23.87;11.73;;;;;;;18.45;44.73;100466.38;5109036;27;20190;-60
2023/03/02 08:26:45;;;;;;;31.03;12.20;;;;;;;18.42;45.14;100472.00;5114311;27;20297;-60
2023/03/02 08:29:10;;;;;;;20.70;11.73;;;;;;;18.84;45.30;100467.16;5129758;27;20176;-61
2023/03/02 08:31:35;;;;;;;20.23;11.70;;;;;;;18.85;45.55;100477.38;5092081;28;20189;-60
2023/03/02 08:34:01;;;;;;;22.50;12.00;;;;;;;18.84;45.82;100470.84;5106752;28;20188;-61
2023/03/02 08:36:26;;;;;;;22.30;11.17;;;;;;;18.50;46.57;100477.50;5105910;28;20202;-61
2023/03/02 08:38:52;;;;;;;24.43;12.17;;;;;;;18.09;47.21;100477.34;5110926;28;20243;-61
2023/03/02 08:41:19;;;;;;;22.40;10.47;;;;;;;18.06;47.39;100478.94;5102439;28;20201;-61
2023/03/02 08:43:45;;;;;;;23.37;11.40;;;;;;;17.90;47.43;100480.19;5106826;28;20832;-61
2023/03/02 08:46:11;;;;;;;21.57;10.93;;;;;;;18.12;46.50;100473.75;5105265;28;20419;-61
2023/03/02 08:48:37;;;;;;;22.80;10.57;;;;;;;18.19;45.94;100471.06;5108965;28;20242;-60
2023/03/02 08:51:04;;;;;;;21.73;10.00;;;;;;;18.10;45.63;100471.28;5108840;28;20435;-61
2023/03/02 08:53:31;;;;;;;23.80;11.33;;;;;;;17.82;45.37;100467.78;5104629;28;20591;-60
2023/03/02 08:55:57;;;;;;;25.20;11.70;;;;;;;17.69;44.96;100468.25;5102570;28;20490;-60
2023/03/02 08:58:22;;;;;;;21.10;13.40;;;;;;;17.66;43.28;100469.00;5109527;27;20432;-61
2023/03/02 09:00:48;;;;;;;27.03;13.23;;;;;;;17.58;43.78;100468.00;5100914;28;20188;-61
2023/03/02 09:03:13;;;;;;;23.37;12.30;;;;;;;17.62;44.60;100466.06;5099198;28;20624;-61
2023/03/02 09:05:39;;;;;;;28.47;11.47;;;;;;;17.49;44.44;100473.06;5104064;28;20328;-61
2023/03/02 09:08:05;;;;;;;21.47;11.33;;;;;;;17.45;44.57;100474.19;5105547;28;20236;-61
2023/03/02 09:10:30;;;;;;;27.93;12.10;;;;;;;17.44;44.66;100472.50;5110026;28;20274;-61
2023/03/02 09:12:55;;;;;;;28.10;12.33;;;;;;;17.43;44.92;100482.28;5109475;28;20594;-61
2023/03/02 09:15:21;;;;;;;29.17;11.70;;;;;;;17.37;45.44;100473.16;5110370;27;20281;-61
2023/03/02 09:17:46;;;;;;;25.53;11.60;;;;;;;17.36;45.91;100467.81;5106666;28;20186;-61
2023/03/02 09:20:13;;;;;;;26.73;11.80;;;;;;;17.38;46.65;100473.97;5107284;28;20720;-61
2023/03/02 09:22:38;;;;;;;34.17;11.90;;;;;;;17.32;47.85;100481.16;5093022;28;20204;-61
2023/03/02 09:25:04;;;;;;;24.03;11.47;;;;;;;17.31;48.23;100470.94;5097140;28;20411;-60
2023/03/02 09:27:30;;;;;;;28.37;11.90;;;;;;;17.28;47.92;100475.38;5110237;28;20705;-61
2023/03/02 09:29:55;;;;;;;29.90;12.47;;;;;;;17.31;48.11;100480.31;5110915;28;20177;-60
2023/03/02 09:32:21;;;;;;;27.87;10.67;;;;;;;17.34;48.33;100473.03;5110696;28;20178;-61
2023/03/02 09:34:46;;;;;;;19.57;10.10;;;;;;;17.34;48.20;100485.28;5109731;28;20173;-61
2023/03/02 09:37:12;;;;;;;22.27;9.93;;;;;;;17.33;48.19;100474.25;5109685;28;20216;-61
2023/03/02 09:39:38;;;;;;;29.43;10.67;;;;;;;17.33;48.64;100480.78;5110192;28;20177;-61
2023/03/02 09:42:41;;;;;;;26.97;9.40;;;;;;;17.31;48.56;100480.31;5108278;28;20191;-61
2023/03/02 09:45:21;;;;;;;22.13;8.57;;;;;;;17.32;48.55;100484.00;5092076;28;20436;-60
2023/03/02 09:47:55;;;;;;;19.87;10.20;;;;;;;17.32;48.61;100476.28;5106512;28;21039;-61
2023/03/02 09:50:31;;;;;;;21.10;8.77;;;;;;;17.29;48.80;100479.03;5107701;28;20461;-61
2023/03/02 09:53:15;;;;;;;15.93;8.80;;;;;;;17.28;48.87;100485.94;5107354;28;20840;-60
2023/03/02 09:55:41;;;;;;;20.60;9.03;;;;;;;17.28;48.94;100481.06;5109531;28;20403;-61
2023/03/02 09:58:11;;;;;;;20.07;9.43;;;;;;;17.27;48.78;100481.44;5109710;28;20945;-61
2023/03/02 10:00:39;;;;;;;24.57;8.77;;;;;;;17.28;48.81;100481.06;5092308;28;20238;-61
2023/03/02 10:03:07;;;;;;;16.07;7.40;;;;;;;17.27;48.95;100478.56;5091848;28;20404;-61
2023/03/02 10:05:40;;;;;;;17.73;8.20;;;;;;;17.24;49.27;100477.28;5107943;28;20463;-60
2023/03/02 10:08:14;;;;;;;17.13;8.50;;;;;;;17.22;49.01;100476.84;5110252;28;20554;-60
2023/03/02 10:10:55;;;;;;;22.97;8.87;;;;;;;17.23;49.23;100484.19;5108329;28;20507;-60
2023/03/02 10:13:35;;;;;;;23.33;9.57;;;;;;;17.27;49.24;100487.13;5107060;28;20411;-60
2023/03/02 10:16:06;;;;;;;18.43;8.30;;;;;;;17.24;49.56;100480.13;5108618;28;20439;-61
2023/03/02 10:18:40;;;;;;;20.87;8.47;;;;;;;17.25;49.14;100476.09;5108388;28;20421;-60
2023/03/02 10:21:20;;;;;;;23.27;8.53;;;;;;;17.25;49.39;100480.97;5108747;28;20503;-60
2023/03/02 10:23:48;;;;;;;18.03;8.00;;;;;;;17.29;49.51;100477.00;5109278;28;20438;-61
2023/03/02 10:26:16;;;;;;;15.80;7.50;;;;;;;17.23;49.57;100484.19;5108595;28;20480;-60
2023/03/02 10:28:53;;;;;;;17.33;8.57;;;;;;;17.22;49.47;100488.25;5108936;28;20454;-60
2023/03/02 10:31:31;;;;;;;13.60;7.47;;;;;;;17.22;49.62;100485.41;5108514;28;20419;-60
2023/03/02 10:33:57;;;;;;;17.63;8.20;;;;;;;17.23;49.32;100486.22;5108570;28;20414;-60
2023/03/02 10:36:26;;;;;;;16.20;8.37;;;;;;;17.26;49.67;100483.44;5107722;28;20455;-60
2023/03/02 10:38:55;;;;;;;17.57;8.17;;;;;;;17.24;49.55;100485.84;5109206;28;20257;-60
2023/03/02 10:41:27;;;;;;;13.50;7.60;;;;;;;17.23;49.78;100489.06;5106572;28;20446;-60
2023/03/02 10:44:04;;;;;;;16.17;8.30;;;;;;;17.21;49.52;100492.28;5107573;28;20495;-60
2023/03/02 10:46:40;;;;;;;16.23;7.60;;;;;;;17.24;49.93;100496.41;5107992;28;20491;-60
2023/03/02 10:49:23;;;;;;;18.33;7.00;;;;;;;17.23;49.84;100489.91;5091711;28;20412;-60
2023/03/02 10:51:54;;;;;;;13.80;7.83;;;;;;;17.23;49.70;100491.91;5110669;28;20487;-59
2023/03/02 10:54:19;;;;;;;18.30;7.17;;;;;;;17.21;49.75;100495.13;5111494;28;20798;-60
2023/03/02 10:56:50;;;;;;;17.20;7.60;;;;;;;17.20;49.73;100490.63;5113785;28;20454;-60
2023/03/02 10:59:25;;;;;;;14.40;7.20;;;;;;;17.19;49.83;100494.69;5114039;27;20181;-60
2023/03/02 11:02:01;;;;;;;13.20;7.33;;;;;;;17.19;49.84;100491.81;5113594;28;20411;-61
2023/03/02 11:04:27;;;;;;;16.30;8.40;;;;;;;17.21;50.00;100491.47;5112656;28;20458;-60
2023/03/02 11:06:53;;;;;;;15.20;7.30;;;;;;;17.19;49.82;100493.84;5112729;28;20496;-61
2023/03/02 11:09:18;;;;;;;15.80;7.70;;;;;;;17.17;50.21;100488.53;5112931;28;20423;-60
2023/03/02 11:11:52;;;;;;;17.60;8.53;;;;;;;17.20;50.01;100493.47;5110815;28;20655;-61
2023/03/02 11:14:18;;;;;;;12.70;7.57;;;;;;;17.17;49.99;100490.53;5113368;28;20173;-61
2023/03/02 11:16:43;;;;;;;16.17;7.00;;;;;;;17.21;49.70;100491.47;5113956;27;20455;-61
2023/03/02 11:19:23;;;;;;;13.47;7.57;;;;;;;17.18;50.05;100493.03;5115732;27;20190;-61
2023/03/02 11:21:54;;;;;;;11.70;7.30;;;;;;;17.22;49.90;100487.41;5112882;28;20175;-61